Tropical Cyclones
[Index]
Main Index Home Page Stock Weather Photos Extreme Storms Discussion Storm News and Storm Chasing Reports Tropical Cyclones / Hurricanes / Typhoons Weather Data and Links Wild Fires / Bushfires Weather Observation Techniques Weather Picture Catalogue Tornado Pictures and Reports Stock Video Footage and DVDs for sale
Season 1950-1951 Tropical Cyclone 195124 Track Map
Season 1950-1951 Summaries: [BoM-AU] [JTWC-AU] [JTWC-SIO] [JTWC-SPAC] [JTWC-SH]
<<- Previous TC | JTWC 1950-1951 Season | Next TC ->>

click for intensity scale information  Lat/long Grid: Show Hide

 Date Labels: Show Hide

Joint Typhoon Warning Centre Cyclone Data

Name: 195124
Number: 153 / 5124

10 Mar 1951 00:00 UTC to 19 Mar 1951 18:00 UTC

    date/time    lat    long     hPa   cat  kts
1951-03-10 00   12.7   145.3                              
1951-03-10 06   12.4   145.6                              
1951-03-10 12   12.3   146.0                              
1951-03-10 18   12.1   146.4                              
1951-03-11 00   12.3   146.9                              
1951-03-11 06   12.6   147.4                              
1951-03-11 12   13.0   148.0                              
1951-03-11 18   13.3   148.5                              
1951-03-12 00   13.7   148.8                              
1951-03-12 06   13.8   149.1                              
1951-03-12 12   13.8   149.4                              
1951-03-12 18   13.9   149.7                              
1951-03-13 00   13.9   150.1                              
1951-03-13 06   13.6   151.2                              
1951-03-13 12   13.4   152.5                              
1951-03-13 18   13.4   153.6                              
1951-03-14 00   13.6   154.6                              
1951-03-14 06   13.9   155.4                              
1951-03-14 12   14.3   156.2                              
1951-03-14 18   14.6   157.0                              
1951-03-15 00   15.1   157.8                              
1951-03-15 06   15.6   158.5                              
1951-03-15 12   16.1   159.0                              
1951-03-15 18   16.6   159.3                              
1951-03-16 00   17.1   159.7                              
1951-03-16 06   18.2   160.1                              
1951-03-16 12   19.6   160.4                              
1951-03-16 18   21.0   160.3                              
1951-03-17 00   22.2   159.6                              
1951-03-17 06   23.0   158.6                              
1951-03-17 12   23.6   157.4                              
1951-03-17 18   24.2   156.0                              
1951-03-18 00   24.7   154.8                              
1951-03-18 06   25.0   154.0                              
1951-03-18 12   25.4   153.1                              
1951-03-18 18   25.9   152.1                              
1951-03-19 00   26.4   151.2                              
1951-03-19 06   26.9   150.8                              
1951-03-19 12   27.4   150.3                              
1951-03-19 18   28.2   149.5                              
Winds are 1-min average.

Tropical cyclone tracks developed by Michael Bath using data from the Joint Typhoon Warning Centre Best Tracks and Google Maps.


[Australian Severe Weather index] [Copyright Notice] [Email Contacts] [Search This Site] [Privacy Policy]
Document: tropical_cyclone_195124.htm Updated: 18 September 2016